Aeroporto :
LOGIN :

Iscrizione | Disclaimer

   EN    FR    IT 

 










Sommario :    VFR   VFR Marginale   IFR   IFR Intensivo   IFR Molto Intensivo
Visibilità : 
Base nubi : 
>= 8 km
>= 3000ft
5 / 8 km
1000 / 3000 ft
1500m / 5 km
500 / 1000 ft
800 / 1500m
200 / 500 ft
< 800m
< 200 ft
Simboli :   Temporali  Nebbia  Neve Forte  Precipitazioni Forti  Vento > 20 kt
SIGMETs :   Varie  Temporali  Ghiacco  Turbolenza  Onda orograficha  Ceneri Vulcaniche






- Altitudine del aeroporto : 42 ft
- Codice IATA : KGD


UMKK - Khrabrava - Kaliningrad

ULTIMO METAR :
  • 160730Z 23007MPS 9999 BKN019 05/02 Q1008 R24/19//95 NOSIG RMK QFE755/1007

METARs OBSOLETI :
  • 160700Z 23007MPS 9999 BKN022 05/02 Q1008 R24/19//95 NOSIG RMK QFE755/1007
  • 160630Z 22006MPS 9999 SCT024 05/02 Q1007 R24/19//95 NOSIG RMK QFE754/1006
  • 160600Z 25008MPS 9999 BKN025 06/02 Q1007 R24/19//95 NOSIG RMK QFE754/1005
  • 160530Z 25010MPS 9999 BKN025 07/03 Q1006 R24/290095 NOSIG RMK QFE753/1005
  • 160500Z 25010MPS 9999 BKN028 07/03 Q1006 R24/290095 NOSIG RMK QFE753/1004

TAF TAF UMKK
Valido dal 16 a 06 ore il 17 a 06 ore UTC


160459Z 1606/1706 24009G14MPS 9999 SCT011 SCT030
BECMG 1608/1610 21005G10MPS
FM161700 18003G08MPS 3100 BR SCT006 BKN011
TEMPO 1617/1706 2000 RA BR BKN003
PROB40
TEMPO 1700/1706 0500 FG VV002



MetMap, La meteo Aeronautica in un colpo d'occhio ! - Copyright ORBIFLY Dicembre 2007 - Disclaimer

ORBIFLY MET'MAP TEAM :

Programmazione e sviluppo : Alexandra Zaïnal
Concezione : Baudouin d'Aumeries
Aiuto per la programmazione : Marc-Olivier Méhu
Supporto tecnico e logistico : Manuel Goepfert
Aiuto per la traduzione : Arnaldo La Scala

Contatto : metmap@orbifly.com




FONTI E CREDITI :

   NOAA